High Priority — A8NZ7 — position and weather

sailwx.info

Track history (hours):
 
Tides and Currents Weather Stations Pressure Air Temp Water Temp Dewpoint Dewpoint Depression Visibility Wind Speed Wind Dir Waves Ship Positions

High Priority

Last reported at 2014-Jul-29 04:03 UTC. Time now 2014-Aug-31 00:35 UTC.
Position N 26°09' W 078°06'.
Warning: this ship's position is 32 days out of date.

Length 180 m; draft 12 m.

Type: Tanker. MMSI: 636013591.

Date/timePositionNaut miles runAvg speedWind from/ knotsBaromVisibWave heightAir tempDewpointWater temp
2014-Jul-29 04:03N 26°09' W 078°06'713.4
2014-Jul-29 03:33N 26°12' W 078°12'1313.0
2014-Jul-29 02:33N 26°19' W 078°25'1313.1
2014-Jul-29 01:33N 26°25' W 078°38'9 8.8
2014-Jul-29 00:33N 26°29' W 078°47'14 7.2
2014-Jul-28 22:33N 26°22' W 079°00'2013.4
2014-Jul-28 21:05N 26°11' W 079°19'714.4
2014-Jul-28 20:34N 26°07' W 079°26'1515.3
2014-Jul-28 19:34N 25°52' W 079°28'1715.3
2014-Jul-28 18:26N 25°35' W 079°30'  
Track history (hours):
 
Tides and Currents Weather Stations Pressure Air Temp Water Temp Dewpoint Dewpoint Depression Visibility Wind Speed Wind Dir Waves Ship Positions

High Priority

Last reported at 2014-Jul-29 04:03 UTC. Time now 2014-Aug-31 00:35 UTC.
Position N 26°09' W 078°06'.
Warning: this ship's position is 32 days out of date.

Length 180 m; draft 12 m.

Type: Tanker. MMSI: 636013591.

Date/timePositionNaut miles runAvg speedWind from/ knotsBaromVisibWave heightAir tempDewpointWater temp
2014-Jul-29 04:03N 26°09' W 078°06'713.4
2014-Jul-29 03:33N 26°12' W 078°12'1313.0
2014-Jul-29 02:33N 26°19' W 078°25'1313.1
2014-Jul-29 01:33N 26°25' W 078°38'9 8.8
2014-Jul-29 00:33N 26°29' W 078°47'14 7.2
2014-Jul-28 22:33N 26°22' W 079°00'2013.4
2014-Jul-28 21:05N 26°11' W 079°19'714.4
2014-Jul-28 20:34N 26°07' W 079°26'1515.3
2014-Jul-28 19:34N 25°52' W 079°28'1715.3
2014-Jul-28 18:26N 25°35' W 079°30'  

Dump ship's entire track history